Time;durP1;ratioP1;P1;durP2;ratioP2;P2;SDS_P1;SDS_P2;PMS_P1;PMS_P2;Temp;Humidity;BMP_temperature;BMP_pressure;BME280_temperature;BME280_humidity;BME280_pressure;Samples;Min_cycle;Max_cycle;Signal;HPM_P1;HPM_P2
2022/05/05 00:00:02;;;;;;;7.28;5.18;;;;;;;;;;5093264;28;20520;-29
2022/05/05 00:02:28;;;;;;;8.30;5.07;;;;;;;;;;5094765;28;20040;-29
2022/05/05 00:04:54;;;;;;;11.65;5.75;;;;;;;;;;5093328;28;20066;-29
2022/05/05 00:07:20;;;;;;;7.25;5.00;;;;;;;;;;5094262;28;20432;-28
2022/05/05 00:09:46;;;;;;;6.85;4.93;;;;;;;;;;5094557;28;20043;-28
2022/05/05 00:14:57;;;;;;;8.30;5.70;;;;;;;;;;5093579;28;20051;-26
2022/05/05 00:17:25;;;;;;;10.77;6.13;;;;;;;;;;5095016;28;20032;-28
2022/05/05 00:19:51;;;;;;;11.57;5.65;;;;;;;;;;5095009;28;20044;-26
2022/05/05 00:22:17;;;;;;;8.85;5.78;;;;;;;;;;5094934;28;20043;-26
2022/05/05 00:24:43;;;;;;;9.80;5.80;;;;;;;;;;5094556;28;20084;-28
2022/05/05 00:27:09;;;;;;;10.40;5.97;;;;;;;;;;5094907;28;20075;-27
2022/05/05 00:29:35;;;;;;;9.35;5.70;;;;;;;;;;5094239;28;20046;-27
2022/05/05 00:32:01;;;;;;;10.02;6.15;;;;;;;;;;5094492;28;20036;-25
2022/05/05 00:34:28;;;;;;;8.98;6.22;;;;;;;;;;5094711;28;20039;-25
2022/05/05 00:36:54;;;;;;;8.70;6.55;;;;;;;;;;5094568;28;20444;-26
2022/05/05 00:39:20;;;;;;;11.48;6.68;;;;;;;;;;5094694;28;20081;-29
2022/05/05 00:41:47;;;;;;;10.45;5.97;;;;;;;;;;5094071;28;20044;-27
2022/05/05 00:44:14;;;;;;;10.65;6.57;;;;;;;;;;5094241;28;20433;-25
2022/05/05 00:46:40;;;;;;;8.75;6.28;;;;;;;;;;5094356;28;20044;-26
2022/05/05 00:49:06;;;;;;;14.35;6.50;;;;;;;;;;5094225;28;20440;-26
2022/05/05 00:51:33;;;;;;;11.70;6.88;;;;;;;;;;5092815;28;20473;-30
2022/05/05 00:53:59;;;;;;;10.73;7.18;;;;;;;;;;5093428;28;20039;-28
2022/05/05 00:56:26;;;;;;;11.10;6.90;;;;;;;;;;5094333;28;20036;-26
2022/05/05 00:58:53;;;;;;;11.23;7.25;;;;;;;;;;5094240;28;20493;-27
2022/05/05 01:01:21;;;;;;;12.18;7.10;;;;;;;;;;5093731;28;20051;-26
2022/05/05 01:03:48;;;;;;;10.38;6.78;;;;;;;;;;5093820;28;20051;-27
2022/05/05 01:06:17;;;;;;;12.65;7.10;;;;;;;;;;5092630;28;20083;-26
2022/05/05 01:08:44;;;;;;;9.68;6.95;;;;;;;;;;5093667;28;20063;-27
2022/05/05 01:11:10;;;;;;;12.95;7.30;;;;;;;;;;5093264;28;20032;-26
2022/05/05 01:13:40;;;;;;;11.52;6.78;;;;;;;;;;5093087;28;20048;-26
2022/05/05 01:16:07;;;;;;;12.55;7.45;;;;;;;;;;5083141;27;20042;-25
2022/05/05 01:18:33;;;;;;;8.80;7.22;;;;;;;;;;5117934;27;20039;-25
2022/05/05 01:20:59;;;;;;;12.80;7.10;;;;;;;;;;5113517;28;20074;-26
2022/05/05 01:23:25;;;;;;;11.45;7.35;;;;;;;;;;5113539;28;20045;-26
2022/05/05 01:28:40;;;;;;;11.25;7.45;;;;;;;;;;5113405;27;20043;-29
2022/05/05 01:31:07;;;;;;;11.63;7.65;;;;;;;;;;5113852;28;20058;-25
2022/05/05 01:33:34;;;;;;;11.02;7.80;;;;;;;;;;5114291;28;20047;-27
2022/05/05 01:36:00;;;;;;;10.65;7.50;;;;;;;;;;5114860;28;20031;-26
2022/05/05 01:38:36;;;;;;;13.50;7.82;;;;;;;;;;5114202;28;20046;-28
2022/05/05 01:41:06;;;;;;;8.43;7.45;;;;;;;;;;5113500;27;20086;-26
2022/05/05 01:43:32;;;;;;;14.00;7.63;;;;;;;;;;5113083;28;20040;-27
2022/05/05 01:45:59;;;;;;;10.77;7.40;;;;;;;;;;5105417;28;20434;-28
2022/05/05 01:48:25;;;;;;;10.95;6.90;;;;;;;;;;5099436;28;20036;-27
2022/05/05 01:50:51;;;;;;;10.27;7.57;;;;;;;;;;5112929;28;20078;-27
2022/05/05 01:53:17;;;;;;;11.13;7.88;;;;;;;;;;5113369;28;20043;-27
2022/05/05 01:55:43;;;;;;;10.55;8.02;;;;;;;;;;5113230;28;20397;-26
2022/05/05 01:58:09;;;;;;;8.65;7.45;;;;;;;;;;5112985;28;20050;-27
2022/05/05 02:00:35;;;;;;;13.95;9.25;;;;;;;;;;5112831;28;20039;-27
2022/05/05 02:03:01;;;;;;;9.93;8.30;;;;;;;;;;5112869;28;20404;-27
2022/05/05 02:05:27;;;;;;;12.40;8.55;;;;;;;;;;5112910;28;20102;-27
2022/05/05 02:07:53;;;;;;;15.60;8.63;;;;;;;;;;5113153;28;20591;-26
2022/05/05 02:10:24;;;;;;;13.70;9.93;;;;;;;;;;5113255;28;20032;-26
2022/05/05 02:12:53;;;;;;;12.55;8.50;;;;;;;;;;5111683;28;20499;-25
2022/05/05 02:15:19;;;;;;;9.48;8.15;;;;;;;;;;5112642;28;20118;-25
2022/05/05 02:17:45;;;;;;;10.93;8.48;;;;;;;;;;5111023;28;20043;-25
2022/05/05 02:20:12;;;;;;;11.85;8.48;;;;;;;;;;5112594;28;20046;-25
2022/05/05 02:22:38;;;;;;;12.68;9.00;;;;;;;;;;5112367;28;20071;-26
2022/05/05 02:25:05;;;;;;;15.00;9.43;;;;;;;;;;5112442;28;20028;-26
2022/05/05 02:27:31;;;;;;;12.45;8.68;;;;;;;;;;5112387;28;20047;-26
2022/05/05 02:29:57;;;;;;;13.73;9.55;;;;;;;;;;5112328;28;20509;-26
2022/05/05 02:32:23;;;;;;;14.43;8.60;;;;;;;;;;5112326;28;20456;-27
2022/05/05 02:34:49;;;;;;;10.05;8.27;;;;;;;;;;5111024;28;20472;-25
2022/05/05 02:40:00;;;;;;;13.50;9.55;;;;;;;;;;5111156;28;20139;-26
2022/05/05 02:42:26;;;;;;;13.75;9.55;;;;;;;;;;5112026;28;20044;-25
2022/05/05 02:44:52;;;;;;;11.13;8.57;;;;;;;;;;5112293;28;20124;-26
2022/05/05 02:47:18;;;;;;;12.98;9.15;;;;;;;;;;5112539;28;20046;-26
2022/05/05 02:49:44;;;;;;;9.43;8.40;;;;;;;;;;5111799;28;20118;-26
2022/05/05 02:52:10;;;;;;;10.85;8.95;;;;;;;;;;5112064;28;20036;-26
2022/05/05 02:54:51;;;;;;;11.68;8.20;;;;;;;;;;5111867;28;20036;-25
2022/05/05 02:57:23;;;;;;;14.57;9.80;;;;;;;;;;5112020;28;20377;-26
2022/05/05 02:59:56;;;;;;;14.73;10.45;;;;;;;;;;5112179;28;20058;-26
2022/05/05 03:02:23;;;;;;;17.20;10.18;;;;;;;;;;5111924;28;20582;-25
2022/05/05 03:04:50;;;;;;;10.23;8.65;;;;;;;;;;5112047;28;20044;-25
2022/05/05 03:07:16;;;;;;;14.00;8.73;;;;;;;;;;5111639;28;20121;-25
2022/05/05 03:09:42;;;;;;;12.10;8.50;;;;;;;;;;5111940;28;20036;-28
2022/05/05 03:12:09;;;;;;;13.32;8.82;;;;;;;;;;5112180;28;20040;-26
2022/05/05 03:14:35;;;;;;;10.32;8.77;;;;;;;;;;5111978;28;20043;-27
2022/05/05 03:17:01;;;;;;;15.90;9.95;;;;;;;;;;5111869;28;20491;-26
2022/05/05 03:19:28;;;;;;;12.38;8.68;;;;;;;;;;5111570;28;20035;-28
2022/05/05 03:21:54;;;;;;;12.05;8.95;;;;;;;;;;5111577;28;20121;-28
2022/05/05 03:24:20;;;;;;;13.63;9.95;;;;;;;;;;5111848;28;20042;-26
2022/05/05 03:26:46;;;;;;;13.35;10.70;;;;;;;;;;5112079;28;20126;-26
2022/05/05 03:29:12;;;;;;;14.95;9.43;;;;;;;;;;5111784;28;20055;-26
2022/05/05 03:31:39;;;;;;;13.88;9.45;;;;;;;;;;5111659;28;20092;-27
2022/05/05 03:34:05;;;;;;;11.50;9.80;;;;;;;;;;5111425;28;20078;-29
2022/05/05 03:36:32;;;;;;;13.23;8.93;;;;;;;;;;5111464;28;20035;-26
2022/05/05 03:38:58;;;;;;;13.25;9.57;;;;;;;;;;5111860;28;20489;-27
2022/05/05 03:41:24;;;;;;;12.55;10.38;;;;;;;;;;5111567;28;20043;-26
2022/05/05 03:43:52;;;;;;;15.45;9.48;;;;;;;;;;5111952;28;20127;-27
2022/05/05 03:46:18;;;;;;;13.60;9.65;;;;;;;;;;5111981;28;20578;-28
2022/05/05 03:48:44;;;;;;;13.98;10.45;;;;;;;;;;5113683;28;20035;-27
2022/05/05 03:51:10;;;;;;;13.32;9.35;;;;;;;;;;5115970;28;20045;-26
2022/05/05 03:53:36;;;;;;;14.70;10.30;;;;;;;;;;5115474;28;20039;-26
2022/05/05 03:56:04;;;;;;;14.80;9.98;;;;;;;;;;5115679;28;20127;-26
2022/05/05 03:58:30;;;;;;;15.25;11.20;;;;;;;;;;5115139;28;20071;-27
2022/05/05 04:00:56;;;;;;;13.70;10.80;;;;;;;;;;5114841;28;20122;-26
2022/05/05 04:03:31;;;;;;;16.10;10.88;;;;;;;;;;5115297;28;20456;-26
2022/05/05 04:06:02;;;;;;;14.05;10.45;;;;;;;;;;5114780;28;20051;-27
2022/05/05 04:08:28;;;;;;;16.05;11.00;;;;;;;;;;5115294;28;20040;-27
2022/05/05 04:10:54;;;;;;;14.52;11.23;;;;;;;;;;5115144;28;20373;-26
2022/05/05 04:13:21;;;;;;;14.60;11.20;;;;;;;;;;5114853;28;20043;-26
2022/05/05 04:15:47;;;;;;;14.95;11.23;;;;;;;;;;5113906;28;20088;-28
2022/05/05 04:18:14;;;;;;;14.27;10.38;;;;;;;;;;5114861;28;20035;-26
2022/05/05 04:20:41;;;;;;;16.40;10.52;;;;;;;;;;5115089;28;20044;-27
2022/05/05 04:23:08;;;;;;;15.20;11.00;;;;;;;;;;5114789;28;20180;-27
2022/05/05 04:25:34;;;;;;;15.10;10.70;;;;;;;;;;5114583;28;20039;-26
2022/05/05 04:28:00;;;;;;;13.57;10.75;;;;;;;;;;5114669;27;20134;-26
2022/05/05 04:30:26;;;;;;;16.45;11.73;;;;;;;;;;5116819;27;20036;-27
2022/05/05 04:32:53;;;;;;;13.10;10.23;;;;;;;;;;5130028;27;20046;-26
2022/05/05 04:35:19;;;;;;;13.98;10.43;;;;;;;;;;5114585;28;20101;-26
2022/05/05 04:37:45;;;;;;;13.30;11.05;;;;;;;;;;5114189;28;20044;-26
2022/05/05 04:40:11;;;;;;;16.42;10.95;;;;;;;;;;5113020;28;20475;-28
2022/05/05 04:42:38;;;;;;;14.57;10.90;;;;;;;;;;5114310;28;20079;-26
2022/05/05 04:45:04;;;;;;;14.85;11.05;;;;;;;;;;5114639;28;20047;-25
2022/05/05 04:47:32;;;;;;;16.05;10.85;;;;;;;;;;5109142;28;20032;-26
2022/05/05 04:49:58;;;;;;;15.90;11.60;;;;;;;;;;5093411;28;20079;-26
2022/05/05 04:52:25;;;;;;;15.57;11.15;;;;;;;;;;5093461;28;20048;-27
2022/05/05 04:54:54;;;;;;;16.27;11.75;;;;;;;;;;5093983;28;20036;-26
2022/05/05 04:57:20;;;;;;;13.88;12.10;;;;;;;;;;5093544;28;20058;-25
2022/05/05 04:59:46;;;;;;;15.93;11.48;;;;;;;;;;5093786;28;20511;-26
2022/05/05 05:02:12;;;;;;;16.85;12.10;;;;;;;;;;5093268;28;20040;-27
2022/05/05 05:04:38;;;;;;;14.45;10.77;;;;;;;;;;5092388;28;20093;-26
2022/05/05 05:07:04;;;;;;;16.02;12.05;;;;;;;;;;5093672;28;20071;-27
2022/05/05 05:09:30;;;;;;;17.00;12.75;;;;;;;;;;5099568;28;20051;-26
2022/05/05 05:11:56;;;;;;;16.45;11.40;;;;;;;;;;5098739;28;20443;-27
2022/05/05 05:14:23;;;;;;;16.00;13.00;;;;;;;;;;5093379;28;20467;-26
2022/05/05 05:16:49;;;;;;;18.52;12.52;;;;;;;;;;5093044;28;20072;-26
2022/05/05 05:19:15;;;;;;;15.57;12.35;;;;;;;;;;5093447;28;20039;-26
2022/05/05 05:21:41;;;;;;;16.67;12.48;;;;;;;;;;5093823;28;20158;-27
2022/05/05 05:24:09;;;;;;;14.57;11.45;;;;;;;;;;5092303;28;20047;-27
2022/05/05 05:26:38;;;;;;;19.15;12.68;;;;;;;;;;5092257;28;20097;-28
2022/05/05 05:29:04;;;;;;;19.83;12.23;;;;;;;;;;5092000;28;20040;-27
2022/05/05 05:31:32;;;;;;;15.88;12.50;;;;;;;;;;5091658;28;20036;-28
2022/05/05 05:33:59;;;;;;;16.15;12.18;;;;;;;;;;5075205;28;20036;-27
2022/05/05 05:36:26;;;;;;;17.70;12.13;;;;;;;;;;5093362;28;20048;-28
2022/05/05 05:38:52;;;;;;;18.63;12.35;;;;;;;;;;5075942;28;20079;-28
2022/05/05 05:41:19;;;;;;;17.88;12.45;;;;;;;;;;5092218;28;20051;-26
2022/05/05 05:43:45;;;;;;;18.55;13.65;;;;;;;;;;5093731;28;20047;-26
2022/05/05 05:46:11;;;;;;;16.42;12.75;;;;;;;;;;5091996;28;20108;-27
2022/05/05 05:48:38;;;;;;;19.55;13.30;;;;;;;;;;5093311;28;20511;-28
2022/05/05 05:51:05;;;;;;;15.65;12.88;;;;;;;;;;5092519;28;20039;-27
2022/05/05 05:53:32;;;;;;;17.48;13.63;;;;;;;;;;5092786;28;20040;-26
2022/05/05 05:55:58;;;;;;;17.33;12.70;;;;;;;;;;5093204;28;20036;-26
2022/05/05 05:58:24;;;;;;;15.57;12.65;;;;;;;;;;5091905;28;20044;-27
2022/05/05 06:00:50;;;;;;;19.20;13.70;;;;;;;;;;5092970;28;20042;-28
2022/05/05 06:06:02;;;;;;;16.70;12.20;;;;;;;;;;5092796;28;20036;-27
2022/05/05 06:08:28;;;;;;;17.55;13.13;;;;;;;;;;5092549;28;20119;-26
2022/05/05 06:10:54;;;;;;;16.60;12.60;;;;;;;;;;5092301;28;20617;-26
2022/05/05 06:13:20;;;;;;;18.67;12.02;;;;;;;;;;5091335;28;20039;-27
2022/05/05 06:15:47;;;;;;;19.73;12.68;;;;;;;;;;5092051;28;20047;-30
2022/05/05 06:18:13;;;;;;;17.95;12.43;;;;;;;;;;5092142;28;20075;-27
2022/05/05 06:20:39;;;;;;;18.00;13.23;;;;;;;;;;5092491;28;20036;-26
2022/05/05 06:23:05;;;;;;;16.60;12.15;;;;;;;;;;5092050;28;20064;-27
2022/05/05 06:25:31;;;;;;;15.40;11.98;;;;;;;;;;5092163;28;20448;-27
2022/05/05 06:27:58;;;;;;;15.07;12.75;;;;;;;;;;5092200;28;20036;-27
2022/05/05 06:30:25;;;;;;;22.40;12.90;;;;;;;;;;5092132;28;20064;-28
2022/05/05 06:32:51;;;;;;;14.82;11.90;;;;;;;;;;5091706;28;20044;-27
2022/05/05 06:35:17;;;;;;;16.27;11.93;;;;;;;;;;5091526;28;20121;-28
2022/05/05 06:37:43;;;;;;;18.20;12.18;;;;;;;;;;5091812;28;20048;-27
2022/05/05 06:40:10;;;;;;;20.00;12.98;;;;;;;;;;5091979;28;20089;-25
2022/05/05 06:42:36;;;;;;;15.25;11.48;;;;;;;;;;5091440;28;20051;-25
2022/05/05 06:45:02;;;;;;;15.90;12.68;;;;;;;;;;5091690;28;20072;-25
2022/05/05 06:47:29;;;;;;;15.45;12.90;;;;;;;;;;5073191;28;20040;-25
2022/05/05 06:49:55;;;;;;;18.35;12.20;;;;;;;;;;5091085;28;20036;-25
2022/05/05 06:52:21;;;;;;;17.50;12.13;;;;;;;;;;5091032;28;20043;-26
2022/05/05 06:54:47;;;;;;;16.42;11.18;;;;;;;;;;5091251;28;20493;-26
2022/05/05 06:57:13;;;;;;;17.40;11.77;;;;;;;;;;5090868;28;20047;-25
2022/05/05 06:59:39;;;;;;;17.73;12.38;;;;;;;;;;5091166;28;20117;-25
2022/05/05 07:02:05;;;;;;;16.92;12.23;;;;;;;;;;5091175;28;20051;-25
2022/05/05 07:07:16;;;;;;;13.90;11.20;;;;;;;;;;5091248;28;20497;-25
2022/05/05 07:12:28;;;;;;;12.77;10.63;;;;;;;;;;5090169;28;20140;-25
2022/05/05 07:14:55;;;;;;;13.63;10.93;;;;;;;;;;5091339;28;20462;-26
2022/05/05 07:17:21;;;;;;;15.60;10.70;;;;;;;;;;5091258;28;20100;-25
2022/05/05 07:19:47;;;;;;;18.38;10.82;;;;;;;;;;5091144;28;20047;-26
2022/05/05 07:22:13;;;;;;;13.85;11.20;;;;;;;;;;5091284;28;20040;-26
2022/05/05 07:24:39;;;;;;;15.85;10.95;;;;;;;;;;5095326;28;20040;-27
2022/05/05 07:27:06;;;;;;;14.38;10.63;;;;;;;;;;5095267;28;20161;-27
2022/05/05 07:29:32;;;;;;;16.50;9.93;;;;;;;;;;5094689;28;20032;-28
2022/05/05 07:31:59;;;;;;;13.32;9.13;;;;;;;;;;5094869;28;20044;-27
2022/05/05 07:34:25;;;;;;;15.23;8.85;;;;;;;;;;5094438;28;20466;-25
2022/05/05 07:36:51;;;;;;;12.35;8.45;;;;;;;;;;5092248;28;20036;-29
2022/05/05 07:39:17;;;;;;;12.05;7.38;;;;;;;;;;5092760;28;20040;-25
2022/05/05 07:41:44;;;;;;;11.43;8.90;;;;;;;;;;5074264;28;20046;-26
2022/05/05 07:44:10;;;;;;;12.48;8.75;;;;;;;;;;5094091;28;20089;-26
2022/05/05 07:46:36;;;;;;;10.38;8.15;;;;;;;;;;5094397;28;20469;-26
2022/05/05 07:49:04;;;;;;;10.73;7.70;;;;;;;;;;5110704;28;20459;-25
2022/05/05 07:51:31;;;;;;;14.48;8.13;;;;;;;;;;5114507;28;20040;-26
2022/05/05 07:56:43;;;;;;;10.88;7.05;;;;;;;;;;5114760;28;20043;-26
2022/05/05 07:59:09;;;;;;;11.27;7.75;;;;;;;;;;5114505;28;20118;-28
2022/05/05 08:01:35;;;;;;;11.48;8.15;;;;;;;;;;5114626;28;20462;-26
2022/05/05 08:04:01;;;;;;;10.70;7.13;;;;;;;;;;5114231;28;20127;-26
2022/05/05 08:06:27;;;;;;;13.25;6.40;;;;;;;;;;5099635;28;20040;-26
2022/05/05 08:08:53;;;;;;;10.48;6.15;;;;;;;;;;5099446;28;20036;-26
2022/05/05 08:11:19;;;;;;;7.57;5.65;;;;;;;;;;5101843;28;20040;-26
2022/05/05 08:13:45;;;;;;;7.32;5.78;;;;;;;;;;5113175;28;20063;-25
2022/05/05 08:16:11;;;;;;;8.10;5.55;;;;;;;;;;5111930;28;20425;-28
2022/05/05 08:18:38;;;;;;;7.07;4.93;;;;;;;;;;5113077;28;20044;-26
2022/05/05 08:21:10;;;;;;;8.95;5.32;;;;;;;;;;5095785;28;20049;-26
2022/05/05 08:23:38;;;;;;;8.85;5.25;;;;;;;;;;5114214;28;20039;-27
2022/05/05 08:29:05;;;;;;;5.13;4.65;;;;;;;;;;5070936;28;20045;-28
2022/05/05 08:31:32;;;;;;;7.55;5.03;;;;;;;;;;5089397;28;20052;-28
2022/05/05 08:33:58;;;;;;;8.45;4.93;;;;;;;;;;5093773;28;20039;-26
2022/05/05 08:36:24;;;;;;;9.70;6.00;;;;;;;;;;5093545;28;20088;-27
2022/05/05 08:38:50;;;;;;;9.38;6.28;;;;;;;;;;5093879;28;20515;-27
2022/05/05 08:41:16;;;;;;;7.85;6.85;;;;;;;;;;5093749;28;20500;-27
2022/05/05 08:43:42;;;;;;;9.00;6.68;;;;;;;;;;5093701;28;20036;-26
2022/05/05 08:46:09;;;;;;;10.00;7.55;;;;;;;;;;5093785;28;20108;-28
2022/05/05 08:48:36;;;;;;;8.45;6.25;;;;;;;;;;5093339;28;20040;-28
2022/05/05 08:51:03;;;;;;;11.63;6.60;;;;;;;;;;5093677;28;20043;-27
2022/05/05 08:53:35;;;;;;;8.65;6.32;;;;;;;;;;5075308;28;20036;-28
2022/05/05 08:56:02;;;;;;;10.23;6.10;;;;;;;;;;5094115;28;20489;-27
2022/05/05 08:58:29;;;;;;;9.52;6.82;;;;;;;;;;5094045;28;20397;-29
2022/05/05 09:00:55;;;;;;;8.55;6.65;;;;;;;;;;5093609;28;20036;-26
2022/05/05 09:03:21;;;;;;;7.93;6.45;;;;;;;;;;5094054;28;20050;-27
2022/05/05 09:05:56;;;;;;;7.65;5.70;;;;;;;;;;5094886;27;20397;-31
2022/05/05 09:08:32;;;;;;;8.93;6.70;;;;;;;;;;5125197;27;20031;-30
2022/05/05 09:11:01;;;;;;;10.27;6.82;;;;;;;;;;5126324;27;20122;-30
2022/05/05 09:13:37;;;;;;;11.10;6.82;;;;;;;;;;5124847;27;20503;-30
2022/05/05 09:16:04;;;;;;;12.35;6.43;;;;;;;;;;5094436;28;20473;-30
2022/05/05 09:18:32;;;;;;;10.65;7.13;;;;;;;;;;5092740;28;20043;-28
2022/05/05 09:20:59;;;;;;;12.27;6.68;;;;;;;;;;5091090;28;20118;-30
2022/05/05 09:23:34;;;;;;;7.95;6.68;;;;;;;;;;5092150;28;20044;-31
2022/05/05 09:26:01;;;;;;;7.95;6.80;;;;;;;;;;5104980;28;20051;-29
2022/05/05 09:28:30;;;;;;;10.68;6.60;;;;;;;;;;5107299;28;20036;-30
2022/05/05 09:31:01;;;;;;;9.93;6.70;;;;;;;;;;5101491;28;20044;-32
2022/05/05 09:33:47;;;;;;;7.82;6.63;;;;;;;;;;5113344;28;20489;-30
2022/05/05 09:36:17;;;;;;;8.55;6.28;;;;;;;;;;5110364;28;20418;-30
2022/05/05 09:38:55;;;;;;;8.77;6.60;;;;;;;;;;5111541;28;20378;-30
2022/05/05 09:41:23;;;;;;;5.93;5.32;;;;;;;;;;5110020;28;20401;-30
2022/05/05 09:43:50;;;;;;;7.70;5.93;;;;;;;;;;5108056;28;20039;-30
2022/05/05 09:46:27;;;;;;;8.30;5.80;;;;;;;;;;5113760;27;20043;-30
2022/05/05 09:48:54;;;;;;;9.40;6.57;;;;;;;;;;5111671;28;20050;-30
2022/05/05 09:51:21;;;;;;;8.20;6.57;;;;;;;;;;5105774;28;20039;-31
2022/05/05 09:59:29;;;;;;;9.95;6.15;;;;;;;;;;5089920;28;20497;-30
2022/05/05 10:02:04;;;;;;;10.85;6.28;;;;;;;;;;5096174;28;20067;-29
2022/05/05 10:04:31;;;;;;;8.13;5.90;;;;;;;;;;5089824;28;20129;-30
2022/05/05 10:06:57;;;;;;;7.28;5.85;;;;;;;;;;5092389;28;20036;-30
2022/05/05 10:09:23;;;;;;;9.95;6.75;;;;;;;;;;5111271;28;20381;-29
2022/05/05 10:11:49;;;;;;;8.38;6.72;;;;;;;;;;5109772;28;20032;-29
2022/05/05 10:14:20;;;;;;;11.70;7.07;;;;;;;;;;5111916;28;20039;-30
2022/05/05 10:16:46;;;;;;;8.88;6.90;;;;;;;;;;5110222;28;20043;-30
2022/05/05 10:19:14;;;;;;;8.65;6.57;;;;;;;;;;5102822;28;20036;-31
2022/05/05 10:22:03;;;;;;;6.68;5.93;;;;;;;;;;5110727;28;20044;-30
2022/05/05 10:24:34;;;;;;;7.43;6.72;;;;;;;;;;5108904;27;20063;-32
2022/05/05 10:27:01;;;;;;;8.30;5.93;;;;;;;;;;5088648;28;20036;-31
2022/05/05 10:29:39;;;;;;;11.07;6.40;;;;;;;;;;5088623;28;20081;-32
2022/05/05 10:32:12;;;;;;;6.95;5.95;;;;;;;;;;5091030;28;20119;-31
2022/05/05 10:34:41;;;;;;;7.68;5.90;;;;;;;;;;5097809;28;20052;-32
2022/05/05 10:37:11;;;;;;;10.05;6.32;;;;;;;;;;5112106;28;20036;-32
2022/05/05 10:39:43;;;;;;;11.45;6.70;;;;;;;;;;5110529;28;20046;-31
2022/05/05 10:42:15;;;;;;;8.85;6.20;;;;;;;;;;5111910;28;20041;-31
2022/05/05 10:45:00;;;;;;;8.80;6.03;;;;;;;;;;5108782;28;20062;-31
2022/05/05 10:47:26;;;;;;;8.30;6.30;;;;;;;;;;5091783;28;20040;-30
2022/05/05 10:49:54;;;;;;;8.68;5.93;;;;;;;;;;5095057;28;20054;-31
2022/05/05 10:52:29;;;;;;;7.25;5.75;;;;;;;;;;5110590;28;20613;-32
2022/05/05 10:54:56;;;;;;;6.45;5.70;;;;;;;;;;5108799;28;20042;-32
2022/05/05 10:57:29;;;;;;;7.20;6.50;;;;;;;;;;5107010;28;20442;-31
2022/05/05 11:00:09;;;;;;;7.97;6.47;;;;;;;;;;5114741;27;20047;-31
2022/05/05 11:02:35;;;;;;;7.35;6.47;;;;;;;;;;5102630;28;20122;-30
2022/05/05 11:05:20;;;;;;;6.45;5.82;;;;;;;;;;5107104;27;20400;-31
2022/05/05 11:07:49;;;;;;;6.78;6.07;;;;;;;;;;5111602;27;20081;-31
2022/05/05 11:10:34;;;;;;;6.90;5.47;;;;;;;;;;5114940;28;20092;-30
2022/05/05 11:13:00;;;;;;;5.45;4.80;;;;;;;;;;5111563;28;20155;-32
2022/05/05 11:21:33;;;;;;;8.05;6.00;;;;;;;;;;5104300;27;20489;-29
2022/05/05 11:24:00;;;;;;;6.82;5.40;;;;;;;;;;5115325;28;20040;-28
2022/05/05 11:26:27;;;;;;;5.78;5.25;;;;;;;;;;5116223;27;20453;-31
2022/05/05 11:28:53;;;;;;;8.55;6.05;;;;;;;;;;5115886;27;20048;-33
2022/05/05 11:31:21;;;;;;;6.60;5.30;;;;;;;;;;5118963;27;20036;-31
2022/05/05 11:33:48;;;;;;;8.27;5.72;;;;;;;;;;5108147;27;20043;-31
2022/05/05 11:36:14;;;;;;;8.65;6.00;;;;;;;;;;5130665;27;20442;-33
2022/05/05 11:38:42;;;;;;;7.07;5.78;;;;;;;;;;5111511;27;20043;-33
2022/05/05 11:41:08;;;;;;;5.72;5.18;;;;;;;;;;5102891;28;20066;-32
2022/05/05 11:46:20;;;;;;;7.10;5.88;;;;;;;;;;5101179;27;20458;-31
2022/05/05 11:48:54;;;;;;;7.18;5.38;;;;;;;;;;5105474;28;20048;-31
2022/05/05 11:51:21;;;;;;;7.50;5.57;;;;;;;;;;5104502;27;20046;-31
2022/05/05 11:53:47;;;;;;;7.88;6.00;;;;;;;;;;5109009;27;20085;-30
2022/05/05 11:56:13;;;;;;;5.85;5.25;;;;;;;;;;5106388;27;20040;-31
2022/05/05 12:01:39;;;;;;;8.15;6.50;;;;;;;;;;5106282;27;20075;-32
2022/05/05 12:04:05;;;;;;;7.10;6.13;;;;;;;;;;5105181;28;20552;-32
2022/05/05 12:06:32;;;;;;;6.28;5.68;;;;;;;;;;5105104;28;20067;-31
2022/05/05 12:08:59;;;;;;;7.60;6.75;;;;;;;;;;5111283;27;20069;-32
2022/05/05 12:11:31;;;;;;;9.98;6.05;;;;;;;;;;5098236;28;20048;-32
2022/05/05 12:14:06;;;;;;;9.13;5.45;;;;;;;;;;5101807;28;20454;-31
2022/05/05 12:16:36;;;;;;;6.07;5.50;;;;;;;;;;5097971;28;20040;-31
2022/05/05 12:19:10;;;;;;;16.95;7.60;;;;;;;;;;5109377;28;20135;-31
2022/05/05 12:21:36;;;;;;;11.55;7.30;;;;;;;;;;5127014;27;20223;-31
2022/05/05 12:24:03;;;;;;;8.27;5.78;;;;;;;;;;5117190;27;20469;-29
2022/05/05 12:26:36;;;;;;;5.88;5.28;;;;;;;;;;5109076;28;20489;-30
2022/05/05 12:29:13;;;;;;;7.18;6.10;;;;;;;;;;5110907;28;20051;-32
2022/05/05 12:31:39;;;;;;;6.50;5.80;;;;;;;;;;5110307;28;20051;-33
2022/05/05 12:34:05;;;;;;;6.72;6.03;;;;;;;;;;5109161;28;20048;-30
2022/05/05 12:36:31;;;;;;;8.48;5.80;;;;;;;;;;5092538;28;20497;-34
2022/05/05 12:39:12;;;;;;;8.45;5.97;;;;;;;;;;5091908;28;20560;-31
2022/05/05 12:41:39;;;;;;;6.95;5.70;;;;;;;;;;5109854;28;20472;-31
2022/05/05 12:44:08;;;;;;;6.57;5.90;;;;;;;;;;5112293;28;20048;-30
2022/05/05 12:46:35;;;;;;;7.15;5.32;;;;;;;;;;5103983;28;20046;-30
2022/05/05 12:49:01;;;;;;;7.88;5.32;;;;;;;;;;5099613;27;20070;-31
2022/05/05 12:51:35;;;;;;;5.10;4.53;;;;;;;;;;5104253;27;20537;-30
2022/05/05 12:59:36;;;;;;;5.30;4.40;;;;;;;;;;5097814;27;20036;-30
2022/05/05 13:02:05;;;;;;;5.33;4.50;;;;;;;;;;5112441;27;20063;-31
2022/05/05 13:04:31;;;;;;;6.30;4.20;;;;;;;;;;5100033;28;20305;-31
2022/05/05 13:06:57;;;;;;;5.43;4.30;;;;;;;;;;5119284;27;20653;-31
2022/05/05 13:09:23;;;;;;;4.38;3.97;;;;;;;;;;5104131;27;20100;-30
2022/05/05 13:11:53;;;;;;;5.90;4.63;;;;;;;;;;5120998;27;20812;-32
2022/05/05 13:14:20;;;;;;;5.53;4.38;;;;;;;;;;5108001;27;20507;-31
2022/05/05 13:16:47;;;;;;;4.50;4.00;;;;;;;;;;5099611;28;20051;-31
2022/05/05 13:19:13;;;;;;;5.13;4.60;;;;;;;;;;5112541;28;20050;-30
2022/05/05 13:21:40;;;;;;;6.38;4.70;;;;;;;;;;5110561;28;20050;-33
2022/05/05 13:24:07;;;;;;;4.70;3.90;;;;;;;;;;5112703;28;20082;-34
2022/05/05 13:26:33;;;;;;;5.43;3.90;;;;;;;;;;5106865;27;20402;-33
2022/05/05 13:29:00;;;;;;;4.30;3.80;;;;;;;;;;5122837;27;20043;-30
2022/05/05 13:31:26;;;;;;;4.80;4.15;;;;;;;;;;5110970;27;20043;-31
2022/05/05 13:33:53;;;;;;;4.13;3.40;;;;;;;;;;5106099;28;20032;-30
2022/05/05 13:36:19;;;;;;;4.07;3.72;;;;;;;;;;5102886;27;20114;-32
2022/05/05 13:38:45;;;;;;;4.75;4.15;;;;;;;;;;5118430;27;20114;-30
2022/05/05 13:41:11;;;;;;;4.45;4.05;;;;;;;;;;5113157;27;20523;-31
2022/05/05 13:43:39;;;;;;;5.55;3.60;;;;;;;;;;5110142;27;20497;-29
2022/05/05 13:46:05;;;;;;;5.03;4.03;;;;;;;;;;5107165;28;20035;-30
2022/05/05 13:48:31;;;;;;;5.15;4.10;;;;;;;;;;5099888;28;20031;-31
2022/05/05 13:50:58;;;;;;;7.07;5.20;;;;;;;;;;5101291;28;20044;-32
2022/05/05 13:53:24;;;;;;;6.38;5.20;;;;;;;;;;5101413;27;20046;-31
2022/05/05 13:55:50;;;;;;;6.90;6.00;;;;;;;;;;5095460;27;20035;-30
2022/05/05 13:58:16;;;;;;;5.90;5.28;;;;;;;;;;5098224;28;20063;-29
2022/05/05 14:00:42;;;;;;;7.72;4.97;;;;;;;;;;5095290;28;20127;-30
2022/05/05 14:03:09;;;;;;;7.35;5.80;;;;;;;;;;5100176;28;20039;-30
2022/05/05 14:05:35;;;;;;;6.32;5.72;;;;;;;;;;5102285;27;20482;-30
2022/05/05 14:13:31;;;;;;;8.00;5.05;;;;;;;;;;5115660;27;20035;-31
2022/05/05 14:15:57;;;;;;;6.07;5.25;;;;;;;;;;5117119;27;20071;-33
2022/05/05 14:18:24;;;;;;;8.43;5.30;;;;;;;;;;5107178;28;20545;-29
2022/05/05 14:20:50;;;;;;;7.35;4.75;;;;;;;;;;5089988;28;20054;-30
2022/05/05 14:23:16;;;;;;;8.93;4.50;;;;;;;;;;5105973;28;20511;-33
2022/05/05 14:25:42;;;;;;;5.10;4.60;;;;;;;;;;5108260;28;20229;-30
2022/05/05 14:28:09;;;;;;;6.22;4.47;;;;;;;;;;5108211;28;20036;-30
2022/05/05 14:30:35;;;;;;;6.60;4.43;;;;;;;;;;5109872;28;20051;-32
2022/05/05 14:33:01;;;;;;;6.13;4.70;;;;;;;;;;5093040;28;20078;-30
2022/05/05 14:35:27;;;;;;;7.82;4.20;;;;;;;;;;5093881;27;20039;-30
2022/05/05 14:37:53;;;;;;;7.55;3.90;;;;;;;;;;5101698;27;20044;-30
2022/05/05 14:40:19;;;;;;;7.57;4.40;;;;;;;;;;5096059;28;20035;-30
2022/05/05 14:42:45;;;;;;;5.47;4.80;;;;;;;;;;5100240;28;20400;-30
2022/05/05 14:45:16;;;;;;;7.28;4.70;;;;;;;;;;5096227;27;20045;-31
2022/05/05 14:47:42;;;;;;;7.50;5.10;;;;;;;;;;5094400;28;20096;-33
2022/05/05 14:50:08;;;;;;;4.60;4.15;;;;;;;;;;5097914;28;20040;-29
2022/05/05 14:52:34;;;;;;;5.72;4.15;;;;;;;;;;5102785;28;20474;-32
2022/05/05 14:55:01;;;;;;;8.00;4.28;;;;;;;;;;5103061;28;20485;-32
2022/05/05 14:57:27;;;;;;;8.50;4.40;;;;;;;;;;5106193;28;20499;-31
2022/05/05 14:59:55;;;;;;;7.80;4.38;;;;;;;;;;5097894;28;20077;-31
2022/05/05 15:02:21;;;;;;;8.07;4.20;;;;;;;;;;5103947;28;20039;-31
2022/05/05 15:04:47;;;;;;;6.97;3.90;;;;;;;;;;5101179;28;20075;-32
2022/05/05 15:07:14;;;;;;;4.45;4.03;;;;;;;;;;5112392;28;20044;-30
2022/05/05 15:09:40;;;;;;;8.18;4.40;;;;;;;;;;5098075;28;20036;-30
2022/05/05 15:12:06;;;;;;;5.18;3.95;;;;;;;;;;5106208;28;20487;-30
2022/05/05 15:14:34;;;;;;;5.28;3.97;;;;;;;;;;5098917;28;20042;-31
2022/05/05 15:17:00;;;;;;;5.53;4.20;;;;;;;;;;5106280;28;20097;-30
2022/05/05 15:19:27;;;;;;;6.00;3.92;;;;;;;;;;5101020;28;20036;-31
2022/05/05 15:21:54;;;;;;;4.60;4.15;;;;;;;;;;5097666;28;20516;-30
2022/05/05 15:24:20;;;;;;;4.57;3.97;;;;;;;;;;5105664;28;20096;-31